sensor_id;sensor_type;location;lat;lon;timestamp;temperature;humidity
18207;DHT22;9229;52.354;20.886;2023-02-11T00:03:13;2.30;99.90
18207;DHT22;9229;52.354;20.886;2023-02-11T00:08:15;2.30;99.90
18207;DHT22;9229;52.354;20.886;2023-02-11T00:13:18;2.30;99.90
18207;DHT22;9229;52.354;20.886;2023-02-11T00:18:21;2.20;99.90
18207;DHT22;9229;52.354;20.886;2023-02-11T00:23:23;2.20;99.90
18207;DHT22;9229;52.354;20.886;2023-02-11T00:28:26;2.20;99.90
18207;DHT22;9229;52.354;20.886;2023-02-11T00:33:28;2.20;99.90
18207;DHT22;9229;52.354;20.886;2023-02-11T00:38:30;2.20;99.90
18207;DHT22;9229;52.354;20.886;2023-02-11T00:43:34;2.20;99.90
18207;DHT22;9229;52.354;20.886;2023-02-11T00:48:36;2.20;99.90
18207;DHT22;9229;52.354;20.886;2023-02-11T00:53:38;2.20;99.90
18207;DHT22;9229;52.354;20.886;2023-02-11T00:58:42;2.20;99.90
18207;DHT22;9229;52.354;20.886;2023-02-11T01:03:44;2.20;99.90
18207;DHT22;9229;52.354;20.886;2023-02-11T01:08:46;2.20;99.90
18207;DHT22;9229;52.354;20.886;2023-02-11T01:13:50;2.30;99.90
18207;DHT22;9229;52.354;20.886;2023-02-11T01:18:51;2.20;99.90
18207;DHT22;9229;52.354;20.886;2023-02-11T01:23:54;2.20;99.90
18207;DHT22;9229;52.354;20.886;2023-02-11T01:28:57;2.20;99.90
18207;DHT22;9229;52.354;20.886;2023-02-11T01:34:01;2.10;99.90
18207;DHT22;9229;52.354;20.886;2023-02-11T01:39:03;2.20;99.90
18207;DHT22;9229;52.354;20.886;2023-02-11T01:44:25;2.20;99.90
18207;DHT22;9229;52.354;20.886;2023-02-11T01:49:31;2.00;99.90
18207;DHT22;9229;52.354;20.886;2023-02-11T01:54:37;2.20;99.90
18207;DHT22;9229;52.354;20.886;2023-02-11T02:00:15;2.20;99.90
18207;DHT22;9229;52.354;20.886;2023-02-11T02:05:25;2.20;99.90
18207;DHT22;9229;52.354;20.886;2023-02-11T02:10:30;2.20;99.90
18207;DHT22;9229;52.354;20.886;2023-02-11T02:15:35;2.20;99.90
18207;DHT22;9229;52.354;20.886;2023-02-11T02:21:15;2.20;99.90
18207;DHT22;9229;52.354;20.886;2023-02-11T02:27:00;2.20;99.90
18207;DHT22;9229;52.354;20.886;2023-02-11T02:37:49;2.10;99.90
18207;DHT22;9229;52.354;20.886;2023-02-11T02:42:53;2.10;99.90
18207;DHT22;9229;52.354;20.886;2023-02-11T02:47:55;2.10;99.90
18207;DHT22;9229;52.354;20.886;2023-02-11T02:53:10;2.10;99.90
18207;DHT22;9229;52.354;20.886;2023-02-11T02:58:36;2.10;99.90
18207;DHT22;9229;52.354;20.886;2023-02-11T03:03:46;2.10;99.90
18207;DHT22;9229;52.354;20.886;2023-02-11T03:08:56;2.10;99.90
18207;DHT22;9229;52.354;20.886;2023-02-11T03:14:05;2.20;99.90
18207;DHT22;9229;52.354;20.886;2023-02-11T03:19:12;2.20;99.90
18207;DHT22;9229;52.354;20.886;2023-02-11T03:24:26;2.20;99.90
18207;DHT22;9229;52.354;20.886;2023-02-11T03:29:35;2.20;99.90
18207;DHT22;9229;52.354;20.886;2023-02-11T03:34:42;2.20;99.90
18207;DHT22;9229;52.354;20.886;2023-02-11T03:39:51;2.20;99.90
18207;DHT22;9229;52.354;20.886;2023-02-11T03:44:58;2.10;99.90
18207;DHT22;9229;52.354;20.886;2023-02-11T03:50:06;2.10;99.90
18207;DHT22;9229;52.354;20.886;2023-02-11T03:55:12;2.10;99.90
18207;DHT22;9229;52.354;20.886;2023-02-11T04:00:16;2.10;99.90
18207;DHT22;9229;52.354;20.886;2023-02-11T04:05:19;2.10;99.90
18207;DHT22;9229;52.354;20.886;2023-02-11T04:10:24;2.10;99.90
18207;DHT22;9229;52.354;20.886;2023-02-11T04:15:26;2.00;99.90
18207;DHT22;9229;52.354;20.886;2023-02-11T04:20:28;2.00;99.90
18207;DHT22;9229;52.354;20.886;2023-02-11T04:25:33;2.00;99.90
18207;DHT22;9229;52.354;20.886;2023-02-11T04:30:35;2.00;99.90
18207;DHT22;9229;52.354;20.886;2023-02-11T04:35:37;2.00;99.90
18207;DHT22;9229;52.354;20.886;2023-02-11T04:40:41;2.00;99.90
18207;DHT22;9229;52.354;20.886;2023-02-11T04:45:43;1.90;99.90
18207;DHT22;9229;52.354;20.886;2023-02-11T04:50:45;1.90;99.90
18207;DHT22;9229;52.354;20.886;2023-02-11T04:55:49;1.90;99.90
18207;DHT22;9229;52.354;20.886;2023-02-11T05:00:51;1.90;99.90
18207;DHT22;9229;52.354;20.886;2023-02-11T05:05:54;1.80;99.90
18207;DHT22;9229;52.354;20.886;2023-02-11T05:10:58;1.90;99.90
18207;DHT22;9229;52.354;20.886;2023-02-11T05:16:01;1.90;99.90
18207;DHT22;9229;52.354;20.886;2023-02-11T05:21:05;1.90;99.90
18207;DHT22;9229;52.354;20.886;2023-02-11T05:26:09;2.00;99.90
18207;DHT22;9229;52.354;20.886;2023-02-11T05:31:13;2.00;99.90
18207;DHT22;9229;52.354;20.886;2023-02-11T05:36:16;2.10;99.90
18207;DHT22;9229;52.354;20.886;2023-02-11T05:41:20;2.10;99.90
18207;DHT22;9229;52.354;20.886;2023-02-11T05:46:22;2.10;99.90
18207;DHT22;9229;52.354;20.886;2023-02-11T05:51:24;2.20;99.90
18207;DHT22;9229;52.354;20.886;2023-02-11T05:56:28;2.20;99.90
18207;DHT22;9229;52.354;20.886;2023-02-11T06:01:31;2.20;99.90
18207;DHT22;9229;52.354;20.886;2023-02-11T06:06:34;2.20;99.90
18207;DHT22;9229;52.354;20.886;2023-02-11T06:11:38;2.30;99.90
18207;DHT22;9229;52.354;20.886;2023-02-11T06:16:40;2.30;99.90
18207;DHT22;9229;52.354;20.886;2023-02-11T06:21:42;2.40;99.90
18207;DHT22;9229;52.354;20.886;2023-02-11T06:26:47;2.40;99.90
18207;DHT22;9229;52.354;20.886;2023-02-11T06:31:49;2.40;99.90
18207;DHT22;9229;52.354;20.886;2023-02-11T06:36:52;2.50;99.90
18207;DHT22;9229;52.354;20.886;2023-02-11T06:41:55;2.50;99.90
18207;DHT22;9229;52.354;20.886;2023-02-11T06:46:57;2.60;99.90
18207;DHT22;9229;52.354;20.886;2023-02-11T06:51:59;2.70;99.90
18207;DHT22;9229;52.354;20.886;2023-02-11T06:57:04;2.70;99.90
18207;DHT22;9229;52.354;20.886;2023-02-11T07:02:08;2.80;99.90
18207;DHT22;9229;52.354;20.886;2023-02-11T07:07:10;2.80;99.90
18207;DHT22;9229;52.354;20.886;2023-02-11T07:12:13;2.80;99.90
18207;DHT22;9229;52.354;20.886;2023-02-11T07:17:15;2.80;99.90
18207;DHT22;9229;52.354;20.886;2023-02-11T07:22:17;2.80;99.90
18207;DHT22;9229;52.354;20.886;2023-02-11T07:27:21;2.80;99.90
18207;DHT22;9229;52.354;20.886;2023-02-11T07:32:25;2.70;99.90
18207;DHT22;9229;52.354;20.886;2023-02-11T07:37:27;2.80;99.90
18207;DHT22;9229;52.354;20.886;2023-02-11T07:42:32;2.70;99.90
18207;DHT22;9229;52.354;20.886;2023-02-11T07:47:35;2.60;99.90
18207;DHT22;9229;52.354;20.886;2023-02-11T07:52:40;2.60;99.90
18207;DHT22;9229;52.354;20.886;2023-02-11T07:57:45;2.60;99.90
18207;DHT22;9229;52.354;20.886;2023-02-11T08:02:47;2.60;99.90
18207;DHT22;9229;52.354;20.886;2023-02-11T08:07:50;2.60;99.90
18207;DHT22;9229;52.354;20.886;2023-02-11T08:12:54;2.70;99.90
18207;DHT22;9229;52.354;20.886;2023-02-11T08:17:56;2.80;99.90
18207;DHT22;9229;52.354;20.886;2023-02-11T08:22:59;2.80;99.90
18207;DHT22;9229;52.354;20.886;2023-02-11T08:28:04;2.80;99.90
18207;DHT22;9229;52.354;20.886;2023-02-11T08:33:08;2.70;99.90
18207;DHT22;9229;52.354;20.886;2023-02-11T08:38:10;2.80;99.90
18207;DHT22;9229;52.354;20.886;2023-02-11T08:43:17;2.80;99.90
18207;DHT22;9229;52.354;20.886;2023-02-11T08:48:19;2.80;99.90
18207;DHT22;9229;52.354;20.886;2023-02-11T08:53:22;2.90;99.90
18207;DHT22;9229;52.354;20.886;2023-02-11T08:58:26;2.90;99.90
18207;DHT22;9229;52.354;20.886;2023-02-11T09:03:28;3.00;99.90
18207;DHT22;9229;52.354;20.886;2023-02-11T09:08:32;3.10;99.90
18207;DHT22;9229;52.354;20.886;2023-02-11T09:13:36;3.10;99.90
18207;DHT22;9229;52.354;20.886;2023-02-11T09:18:38;3.10;99.90
18207;DHT22;9229;52.354;20.886;2023-02-11T09:23:40;3.00;99.90
18207;DHT22;9229;52.354;20.886;2023-02-11T09:28:46;3.00;99.90
18207;DHT22;9229;52.354;20.886;2023-02-11T09:33:51;2.90;99.90
18207;DHT22;9229;52.354;20.886;2023-02-11T09:38:59;3.00;99.90
18207;DHT22;9229;52.354;20.886;2023-02-11T09:44:16;2.90;99.90
18207;DHT22;9229;52.354;20.886;2023-02-11T09:49:23;2.90;99.90
18207;DHT22;9229;52.354;20.886;2023-02-11T09:54:31;2.90;99.90
18207;DHT22;9229;52.354;20.886;2023-02-11T09:59:36;2.90;99.90
18207;DHT22;9229;52.354;20.886;2023-02-11T10:05:01;2.80;99.90
18207;DHT22;9229;52.354;20.886;2023-02-11T10:10:12;2.80;99.90
18207;DHT22;9229;52.354;20.886;2023-02-11T10:15:35;2.80;99.90
18207;DHT22;9229;52.354;20.886;2023-02-11T10:20:48;2.80;99.90
18207;DHT22;9229;52.354;20.886;2023-02-11T10:25:54;2.80;99.90
18207;DHT22;9229;52.354;20.886;2023-02-11T10:31:00;2.90;99.90
18207;DHT22;9229;52.354;20.886;2023-02-11T10:36:04;2.90;99.90
18207;DHT22;9229;52.354;20.886;2023-02-11T10:41:09;2.90;99.90
18207;DHT22;9229;52.354;20.886;2023-02-11T10:46:17;2.90;99.90
18207;DHT22;9229;52.354;20.886;2023-02-11T10:51:23;2.90;99.90
18207;DHT22;9229;52.354;20.886;2023-02-11T10:56:27;2.80;99.90
18207;DHT22;9229;52.354;20.886;2023-02-11T11:01:40;2.90;99.90
18207;DHT22;9229;52.354;20.886;2023-02-11T11:06:43;2.90;99.90
18207;DHT22;9229;52.354;20.886;2023-02-11T11:11:51;2.90;99.90
18207;DHT22;9229;52.354;20.886;2023-02-11T11:16:55;2.90;99.90
18207;DHT22;9229;52.354;20.886;2023-02-11T11:21:57;2.90;99.90
18207;DHT22;9229;52.354;20.886;2023-02-11T11:27:02;2.90;99.90
18207;DHT22;9229;52.354;20.886;2023-02-11T11:32:12;2.90;99.90
18207;DHT22;9229;52.354;20.886;2023-02-11T11:37:21;2.90;99.90
18207;DHT22;9229;52.354;20.886;2023-02-11T11:42:26;2.90;99.90
18207;DHT22;9229;52.354;20.886;2023-02-11T11:47:39;3.00;99.90
18207;DHT22;9229;52.354;20.886;2023-02-11T11:52:49;3.10;99.90
18207;DHT22;9229;52.354;20.886;2023-02-11T11:57:54;3.10;99.90
18207;DHT22;9229;52.354;20.886;2023-02-11T12:03:43;3.10;99.90
18207;DHT22;9229;52.354;20.886;2023-02-11T12:09:03;3.20;99.90
18207;DHT22;9229;52.354;20.886;2023-02-11T12:14:16;3.20;99.90
18207;DHT22;9229;52.354;20.886;2023-02-11T12:19:40;3.20;99.90
18207;DHT22;9229;52.354;20.886;2023-02-11T12:36:08;3.30;99.90
18207;DHT22;9229;52.354;20.886;2023-02-11T12:41:26;3.30;99.90
18207;DHT22;9229;52.354;20.886;2023-02-11T12:46:55;3.40;99.90
18207;DHT22;9229;52.354;20.886;2023-02-11T12:52:23;3.50;99.90
18207;DHT22;9229;52.354;20.886;2023-02-11T12:57:30;3.50;99.90
18207;DHT22;9229;52.354;20.886;2023-02-11T13:02:39;3.60;99.90
18207;DHT22;9229;52.354;20.886;2023-02-11T13:07:45;3.70;99.90
18207;DHT22;9229;52.354;20.886;2023-02-11T13:12:49;3.70;99.90
18207;DHT22;9229;52.354;20.886;2023-02-11T13:18:23;3.80;99.90
18207;DHT22;9229;52.354;20.886;2023-02-11T13:23:35;3.70;99.90
18207;DHT22;9229;52.354;20.886;2023-02-11T13:28:45;3.80;99.90
18207;DHT22;9229;52.354;20.886;2023-02-11T13:33:49;3.80;99.90
18207;DHT22;9229;52.354;20.886;2023-02-11T13:38:58;3.90;99.90
18207;DHT22;9229;52.354;20.886;2023-02-11T13:44:18;3.90;99.90
18207;DHT22;9229;52.354;20.886;2023-02-11T13:49:26;4.00;99.90
18207;DHT22;9229;52.354;20.886;2023-02-11T13:54:34;4.00;99.90
18207;DHT22;9229;52.354;20.886;2023-02-11T13:59:46;3.90;99.90
18207;DHT22;9229;52.354;20.886;2023-02-11T14:05:11;4.00;99.90
18207;DHT22;9229;52.354;20.886;2023-02-11T14:10:51;4.00;99.90
18207;DHT22;9229;52.354;20.886;2023-02-11T14:16:05;4.00;99.90
18207;DHT22;9229;52.354;20.886;2023-02-11T14:21:13;4.00;99.90
18207;DHT22;9229;52.354;20.886;2023-02-11T14:26:30;4.00;99.90
18207;DHT22;9229;52.354;20.886;2023-02-11T14:31:39;4.00;99.90
18207;DHT22;9229;52.354;20.886;2023-02-11T14:37:01;4.10;99.90
18207;DHT22;9229;52.354;20.886;2023-02-11T14:42:16;4.00;99.90
18207;DHT22;9229;52.354;20.886;2023-02-11T14:47:23;4.10;99.90
18207;DHT22;9229;52.354;20.886;2023-02-11T14:52:28;4.10;99.90
18207;DHT22;9229;52.354;20.886;2023-02-11T14:57:35;4.10;99.90
18207;DHT22;9229;52.354;20.886;2023-02-11T15:02:37;4.10;99.90
18207;DHT22;9229;52.354;20.886;2023-02-11T15:07:44;4.10;99.90
18207;DHT22;9229;52.354;20.886;2023-02-11T15:12:49;4.10;99.90
18207;DHT22;9229;52.354;20.886;2023-02-11T15:17:51;4.10;99.90
18207;DHT22;9229;52.354;20.886;2023-02-11T15:22:56;4.10;99.90
18207;DHT22;9229;52.354;20.886;2023-02-11T15:28:09;4.20;99.90
18207;DHT22;9229;52.354;20.886;2023-02-11T15:33:21;4.20;99.90
18207;DHT22;9229;52.354;20.886;2023-02-11T15:38:25;4.20;99.90
18207;DHT22;9229;52.354;20.886;2023-02-11T15:43:42;4.20;99.90
18207;DHT22;9229;52.354;20.886;2023-02-11T15:48:46;4.30;99.90
18207;DHT22;9229;52.354;20.886;2023-02-11T15:53:51;4.30;99.90
18207;DHT22;9229;52.354;20.886;2023-02-11T15:58:59;4.40;99.90
18207;DHT22;9229;52.354;20.886;2023-02-11T16:04:15;4.40;99.90
18207;DHT22;9229;52.354;20.886;2023-02-11T16:09:23;4.50;99.90
18207;DHT22;9229;52.354;20.886;2023-02-11T16:14:33;4.50;99.90
18207;DHT22;9229;52.354;20.886;2023-02-11T16:19:42;4.60;99.90
18207;DHT22;9229;52.354;20.886;2023-02-11T16:24:46;4.60;99.90
18207;DHT22;9229;52.354;20.886;2023-02-11T16:29:52;4.70;99.90
18207;DHT22;9229;52.354;20.886;2023-02-11T16:34:55;4.80;99.90
18207;DHT22;9229;52.354;20.886;2023-02-11T16:39:58;4.80;99.90
18207;DHT22;9229;52.354;20.886;2023-02-11T16:45:02;4.80;99.90
18207;DHT22;9229;52.354;20.886;2023-02-11T16:50:07;4.70;99.90
18207;DHT22;9229;52.354;20.886;2023-02-11T16:55:11;4.80;99.90
18207;DHT22;9229;52.354;20.886;2023-02-11T17:00:20;4.80;99.90
18207;DHT22;9229;52.354;20.886;2023-02-11T17:05:23;4.80;99.90
18207;DHT22;9229;52.354;20.886;2023-02-11T17:10:26;4.80;99.90
18207;DHT22;9229;52.354;20.886;2023-02-11T17:15:32;4.80;99.90
18207;DHT22;9229;52.354;20.886;2023-02-11T17:20:34;4.90;99.90
18207;DHT22;9229;52.354;20.886;2023-02-11T17:25:36;4.90;99.90
18207;DHT22;9229;52.354;20.886;2023-02-11T17:30:40;4.90;99.90
18207;DHT22;9229;52.354;20.886;2023-02-11T17:35:43;4.90;99.90
18207;DHT22;9229;52.354;20.886;2023-02-11T17:40:56;4.90;99.90
18207;DHT22;9229;52.354;20.886;2023-02-11T17:46:02;5.00;99.90
18207;DHT22;9229;52.354;20.886;2023-02-11T17:51:16;5.00;99.90
18207;DHT22;9229;52.354;20.886;2023-02-11T17:56:21;5.00;99.90
18207;DHT22;9229;52.354;20.886;2023-02-11T18:01:28;5.00;99.90
18207;DHT22;9229;52.354;20.886;2023-02-11T18:06:30;5.00;99.90
18207;DHT22;9229;52.354;20.886;2023-02-11T18:11:35;5.00;99.90
18207;DHT22;9229;52.354;20.886;2023-02-11T18:16:39;5.00;99.90
18207;DHT22;9229;52.354;20.886;2023-02-11T18:21:45;5.00;99.90
18207;DHT22;9229;52.354;20.886;2023-02-11T18:26:49;5.00;99.90
18207;DHT22;9229;52.354;20.886;2023-02-11T18:31:54;5.10;99.90
18207;DHT22;9229;52.354;20.886;2023-02-11T18:37:00;5.10;99.90
18207;DHT22;9229;52.354;20.886;2023-02-11T18:42:03;5.10;99.90
18207;DHT22;9229;52.354;20.886;2023-02-11T18:47:07;5.10;99.90
18207;DHT22;9229;52.354;20.886;2023-02-11T18:52:09;5.10;99.90
18207;DHT22;9229;52.354;20.886;2023-02-11T18:57:14;5.10;99.90
18207;DHT22;9229;52.354;20.886;2023-02-11T19:02:21;5.10;99.90
18207;DHT22;9229;52.354;20.886;2023-02-11T19:07:24;5.10;99.90
18207;DHT22;9229;52.354;20.886;2023-02-11T19:12:27;5.10;99.90
18207;DHT22;9229;52.354;20.886;2023-02-11T19:17:31;5.10;99.90
18207;DHT22;9229;52.354;20.886;2023-02-11T19:22:35;5.10;99.90
18207;DHT22;9229;52.354;20.886;2023-02-11T19:27:37;5.20;99.90
18207;DHT22;9229;52.354;20.886;2023-02-11T19:32:42;5.10;99.90
18207;DHT22;9229;52.354;20.886;2023-02-11T19:37:44;5.10;99.90
18207;DHT22;9229;52.354;20.886;2023-02-11T19:42:46;5.10;99.90
18207;DHT22;9229;52.354;20.886;2023-02-11T19:47:54;5.10;99.90
18207;DHT22;9229;52.354;20.886;2023-02-11T19:52:56;5.10;99.90
18207;DHT22;9229;52.354;20.886;2023-02-11T19:57:59;5.10;99.90
18207;DHT22;9229;52.354;20.886;2023-02-11T20:03:02;5.10;99.90
18207;DHT22;9229;52.354;20.886;2023-02-11T20:08:04;5.10;99.90
18207;DHT22;9229;52.354;20.886;2023-02-11T20:13:07;5.10;99.90
18207;DHT22;9229;52.354;20.886;2023-02-11T20:18:15;5.10;99.90
18207;DHT22;9229;52.354;20.886;2023-02-11T20:23:20;5.10;99.90
18207;DHT22;9229;52.354;20.886;2023-02-11T20:28:22;5.00;99.90
18207;DHT22;9229;52.354;20.886;2023-02-11T20:33:27;5.00;99.90
18207;DHT22;9229;52.354;20.886;2023-02-11T20:38:33;5.00;99.90
18207;DHT22;9229;52.354;20.886;2023-02-11T20:43:37;5.00;99.90
18207;DHT22;9229;52.354;20.886;2023-02-11T20:48:41;5.00;99.90
18207;DHT22;9229;52.354;20.886;2023-02-11T20:53:46;5.00;99.90
18207;DHT22;9229;52.354;20.886;2023-02-11T20:58:50;5.00;99.90
18207;DHT22;9229;52.354;20.886;2023-02-11T21:03:55;5.00;99.90
18207;DHT22;9229;52.354;20.886;2023-02-11T21:09:03;5.00;99.90
18207;DHT22;9229;52.354;20.886;2023-02-11T21:14:11;5.00;99.90
18207;DHT22;9229;52.354;20.886;2023-02-11T21:19:16;4.90;99.90
18207;DHT22;9229;52.354;20.886;2023-02-11T21:24:20;4.80;99.90
18207;DHT22;9229;52.354;20.886;2023-02-11T21:29:23;4.60;99.90
18207;DHT22;9229;52.354;20.886;2023-02-11T21:34:26;4.60;99.90
18207;DHT22;9229;52.354;20.886;2023-02-11T21:39:28;4.50;99.90
18207;DHT22;9229;52.354;20.886;2023-02-11T21:44:30;4.40;99.90
18207;DHT22;9229;52.354;20.886;2023-02-11T21:49:34;4.30;99.90
18207;DHT22;9229;52.354;20.886;2023-02-11T21:54:36;4.30;99.90
18207;DHT22;9229;52.354;20.886;2023-02-11T21:59:38;4.10;99.90
18207;DHT22;9229;52.354;20.886;2023-02-11T22:04:41;4.20;99.90
18207;DHT22;9229;52.354;20.886;2023-02-11T22:09:43;4.20;99.90
18207;DHT22;9229;52.354;20.886;2023-02-11T22:14:47;4.20;99.90
18207;DHT22;9229;52.354;20.886;2023-02-11T22:19:50;4.10;99.90
18207;DHT22;9229;52.354;20.886;2023-02-11T22:24:52;4.00;99.90
18207;DHT22;9229;52.354;20.886;2023-02-11T22:29:55;3.80;99.90
18207;DHT22;9229;52.354;20.886;2023-02-11T22:35:00;3.60;99.90
18207;DHT22;9229;52.354;20.886;2023-02-11T22:40:03;3.60;99.90
18207;DHT22;9229;52.354;20.886;2023-02-11T22:45:06;3.40;99.90
18207;DHT22;9229;52.354;20.886;2023-02-11T22:50:12;3.40;99.90
18207;DHT22;9229;52.354;20.886;2023-02-11T22:55:14;3.20;99.90
18207;DHT22;9229;52.354;20.886;2023-02-11T23:00:18;3.10;99.90
18207;DHT22;9229;52.354;20.886;2023-02-11T23:05:22;2.90;99.90
18207;DHT22;9229;52.354;20.886;2023-02-11T23:10:24;2.70;99.90
18207;DHT22;9229;52.354;20.886;2023-02-11T23:15:26;2.50;99.90
18207;DHT22;9229;52.354;20.886;2023-02-11T23:20:34;2.30;99.90
18207;DHT22;9229;52.354;20.886;2023-02-11T23:25:40;2.20;99.90
18207;DHT22;9229;52.354;20.886;2023-02-11T23:30:43;2.20;99.90
18207;DHT22;9229;52.354;20.886;2023-02-11T23:35:48;2.20;99.90
18207;DHT22;9229;52.354;20.886;2023-02-11T23:40:51;2.20;99.90
18207;DHT22;9229;52.354;20.886;2023-02-11T23:45:53;2.20;99.90
18207;DHT22;9229;52.354;20.886;2023-02-11T23:50:57;2.20;99.90
18207;DHT22;9229;52.354;20.886;2023-02-11T23:55:59;2.20;99.90
